createdAt,value
2019-03-02T00:00:03.269Z,4.90
2019-03-02T00:02:37.354Z,4.90
2019-03-02T00:05:08.518Z,5.00
2019-03-02T00:07:43.851Z,5.00
2019-03-02T00:10:13.947Z,4.90
2019-03-02T00:12:45.618Z,4.90
2019-03-02T00:15:17.634Z,4.90
2019-03-02T00:17:50.629Z,4.90
2019-03-02T00:20:21.910Z,5.00
2019-03-02T00:22:53.164Z,4.90
2019-03-02T00:25:25.130Z,4.90
2019-03-02T00:27:58.130Z,4.90
2019-03-02T00:30:30.717Z,4.90
2019-03-02T00:33:02.046Z,5.00
2019-03-02T00:35:33.912Z,5.00
2019-03-02T00:38:08.929Z,4.90
2019-03-02T00:40:38.134Z,4.90
2019-03-02T00:43:09.950Z,4.80
2019-03-02T00:45:41.531Z,4.90
2019-03-02T00:48:13.299Z,4.80
2019-03-02T00:50:45.462Z,4.80
2019-03-02T00:53:16.723Z,4.80
2019-03-02T00:55:47.713Z,4.80
2019-03-02T00:58:19.279Z,4.90
2019-03-02T01:00:53.677Z,5.00
2019-03-02T01:03:24.535Z,4.90
2019-03-02T01:05:55.801Z,4.90
2019-03-02T01:08:27.417Z,4.90
2019-03-02T01:10:59.115Z,4.90
2019-03-02T01:13:30.465Z,5.00
2019-03-02T01:16:01.465Z,5.00
2019-03-02T01:18:32.748Z,4.90
2019-03-02T01:21:05.078Z,4.90
2019-03-02T01:23:36.885Z,4.90
2019-03-02T01:26:08.539Z,4.90
2019-03-02T01:28:41.656Z,4.90
2019-03-02T01:31:13.577Z,4.90
2019-03-02T01:33:44.920Z,4.90
2019-03-02T01:36:16.498Z,4.90
2019-03-02T01:38:50.623Z,4.90
2019-03-02T01:41:22.435Z,4.90
2019-03-02T01:43:54.324Z,4.90
2019-03-02T01:46:25.883Z,5.00
2019-03-02T01:48:58.642Z,5.00
2019-03-02T01:51:29.982Z,5.00
2019-03-02T01:54:01.251Z,5.00
2019-03-02T01:56:32.786Z,4.90
2019-03-02T01:59:04.051Z,4.90
2019-03-02T02:01:36.158Z,5.00
2019-03-02T02:04:07.745Z,5.00
2019-03-02T02:06:39.786Z,5.00
2019-03-02T02:09:12.471Z,5.00
2019-03-02T02:11:44.895Z,5.00
2019-03-02T02:14:18.650Z,5.10
2019-03-02T02:16:49.998Z,5.00
2019-03-02T02:19:21.703Z,5.00
2019-03-02T02:21:53.436Z,5.00
2019-03-02T02:24:25.727Z,5.00
2019-03-02T02:26:56.774Z,5.00
2019-03-02T02:29:28.495Z,5.00
2019-03-02T02:32:00.392Z,5.00
2019-03-02T02:34:31.725Z,5.00
2019-03-02T02:37:03.898Z,4.90
2019-03-02T02:39:35.885Z,4.90
2019-03-02T02:42:07.416Z,4.90
2019-03-02T02:44:39.346Z,4.90
2019-03-02T02:47:13.929Z,4.90
2019-03-02T02:49:49.146Z,4.90
2019-03-02T02:52:27.603Z,4.90
2019-03-02T02:54:57.501Z,4.80
2019-03-02T02:57:26.235Z,4.80
2019-03-02T02:59:57.891Z,4.80
2019-03-02T03:02:29.988Z,4.80
2019-03-02T03:05:01.264Z,4.80
2019-03-02T03:07:33.470Z,4.80
2019-03-02T03:10:39.951Z,4.80
2019-03-02T03:13:11.279Z,4.80
2019-03-02T03:15:44.917Z,4.80
2019-03-02T03:18:16.240Z,4.80
2019-03-02T03:20:50.250Z,4.80
2019-03-02T03:23:24.978Z,4.70
2019-03-02T03:25:57.003Z,4.70
2019-03-02T03:28:30.720Z,4.70
2019-03-02T03:31:02.299Z,4.70
2019-03-02T03:33:42.167Z,4.80
2019-03-02T03:36:06.844Z,4.80
2019-03-02T03:38:38.363Z,4.80
2019-03-02T03:41:10.477Z,4.80
2019-03-02T03:43:44.295Z,4.70
2019-03-02T03:46:17.779Z,4.70
2019-03-02T03:48:56.360Z,4.70
2019-03-02T03:51:26.112Z,4.70
2019-03-02T03:54:01.493Z,4.70
2019-03-02T03:56:32.366Z,4.80
2019-03-02T03:59:03.606Z,4.80
2019-03-02T04:01:35.450Z,4.80
2019-03-02T04:04:07.122Z,4.80
2019-03-02T04:06:38.953Z,4.80
2019-03-02T04:09:10.859Z,4.80
2019-03-02T04:11:43.481Z,4.80
2019-03-02T04:14:19.099Z,4.80
2019-03-02T04:16:48.521Z,4.80
2019-03-02T04:19:29.442Z,4.80
2019-03-02T04:22:02.098Z,4.80
2019-03-02T04:24:39.188Z,4.80
2019-03-02T04:27:11.167Z,4.80
2019-03-02T04:29:49.021Z,4.80
2019-03-02T04:32:14.110Z,4.90
2019-03-02T04:34:45.890Z,4.90
2019-03-02T04:37:20.360Z,4.90
2019-03-02T04:39:50.241Z,4.90
2019-03-02T04:42:23.028Z,4.90
2019-03-02T04:44:54.715Z,5.00
2019-03-02T04:47:27.304Z,4.90
2019-03-02T04:49:58.917Z,4.80
2019-03-02T04:52:29.917Z,4.80
2019-03-02T04:55:01.203Z,4.80
2019-03-02T04:57:36.137Z,4.90
2019-03-02T05:00:10.928Z,4.80
2019-03-02T05:02:42.003Z,4.80
2019-03-02T05:05:13.419Z,4.80
2019-03-02T05:07:45.282Z,4.90
2019-03-02T05:10:16.623Z,4.90
2019-03-02T05:12:49.786Z,4.90
2019-03-02T05:15:22.626Z,4.80
2019-03-02T05:17:54.395Z,4.80
2019-03-02T05:20:25.714Z,4.90
2019-03-02T05:22:57.813Z,4.80
2019-03-02T05:25:29.736Z,4.90
2019-03-02T05:28:03.820Z,4.90
2019-03-02T05:30:35.023Z,4.90
2019-03-02T05:33:06.693Z,4.90
2019-03-02T05:35:38.709Z,4.90
2019-03-02T05:38:11.764Z,4.90
2019-03-02T05:40:43.734Z,4.90
2019-03-02T05:43:15.202Z,4.80
2019-03-02T05:45:46.889Z,4.90
2019-03-02T05:48:18.508Z,4.90
2019-03-02T05:50:50.519Z,4.90
2019-03-02T05:53:22.357Z,4.90
2019-03-02T05:55:54.966Z,5.00
2019-03-02T05:58:26.658Z,4.90
2019-03-02T06:00:58.254Z,4.90
2019-03-02T06:03:29.555Z,4.90
2019-03-02T06:06:00.821Z,4.90
2019-03-02T06:08:35.623Z,4.90
2019-03-02T06:11:06.758Z,5.00
2019-03-02T06:13:37.997Z,4.90
2019-03-02T06:16:09.315Z,4.90
2019-03-02T06:18:42.539Z,5.00
2019-03-02T06:21:14.440Z,5.00
2019-03-02T06:23:46.183Z,4.90
2019-03-02T06:26:18.504Z,5.00
2019-03-02T06:28:51.187Z,5.00
2019-03-02T06:31:23.153Z,5.10
2019-03-02T06:33:55.630Z,5.10
2019-03-02T06:36:27.079Z,5.10
2019-03-02T06:38:59.169Z,5.20
2019-03-02T06:41:33.160Z,5.20
2019-03-02T06:44:03.658Z,5.20
2019-03-02T06:46:35.082Z,5.10
2019-03-02T06:49:07.528Z,5.20
2019-03-02T06:51:39.546Z,5.30
2019-03-02T06:54:31.042Z,5.30
2019-03-02T06:57:03.670Z,5.30
2019-03-02T06:59:35.860Z,5.30
2019-03-02T07:02:08.964Z,5.40
2019-03-02T07:04:41.178Z,5.40
2019-03-02T07:07:13.477Z,5.40
2019-03-02T07:09:46.159Z,5.50
2019-03-02T07:12:17.572Z,5.50
2019-03-02T07:14:51.724Z,5.50
2019-03-02T07:18:01.911Z,5.50
2019-03-02T07:20:35.274Z,5.50
2019-03-02T07:23:07.380Z,5.50
2019-03-02T07:25:40.744Z,5.50
2019-03-02T07:28:13.164Z,5.50
2019-03-02T07:30:44.670Z,5.50
2019-03-02T07:33:16.451Z,5.50
2019-03-02T07:35:51.724Z,5.50
2019-03-02T07:38:22.476Z,5.50
2019-03-02T07:40:54.455Z,5.50
2019-03-02T07:43:25.925Z,5.60
2019-03-02T07:45:57.237Z,5.60
2019-03-02T07:48:39.643Z,5.60
2019-03-02T07:51:13.227Z,5.60
2019-03-02T07:53:45.073Z,5.60
2019-03-02T07:56:16.533Z,5.70
2019-03-02T07:58:51.943Z,5.80
2019-03-02T08:01:22.854Z,5.80
2019-03-02T08:03:55.946Z,5.80
2019-03-02T08:06:28.062Z,5.70
2019-03-02T08:09:00.434Z,5.70
2019-03-02T08:11:33.953Z,5.80
2019-03-02T08:14:08.901Z,5.80
2019-03-02T08:16:40.614Z,5.90
2019-03-02T08:19:12.410Z,6.00
2019-03-02T08:21:44.418Z,6.10
2019-03-02T08:24:17.121Z,6.20
2019-03-02T08:26:48.856Z,6.20
2019-03-02T08:29:21.842Z,6.20
2019-03-02T08:31:53.981Z,6.30
2019-03-02T08:34:27.234Z,6.30
2019-03-02T08:36:59.259Z,6.40
2019-03-02T08:39:31.588Z,6.40
2019-03-02T08:42:03.412Z,6.40
2019-03-02T08:44:35.753Z,6.40
2019-03-02T08:50:27.625Z,6.50
2019-03-02T08:53:00.368Z,6.40
2019-03-02T08:55:33.567Z,6.50
2019-03-02T08:58:06.042Z,6.50
2019-03-02T09:00:38.919Z,6.50
2019-03-02T09:03:10.897Z,6.50
2019-03-02T09:05:46.931Z,6.50
2019-03-02T09:08:16.557Z,6.60
2019-03-02T09:10:49.126Z,6.60
2019-03-02T09:13:22.255Z,6.60
2019-03-02T09:15:53.563Z,6.60
2019-03-02T09:18:25.305Z,6.60
2019-03-02T09:20:56.973Z,6.50
2019-03-02T09:23:29.145Z,6.50
2019-03-02T09:26:01.044Z,6.60
2019-03-02T09:28:34.431Z,6.60
2019-03-02T09:31:06.470Z,6.70
2019-03-02T09:33:38.767Z,6.70
2019-03-02T09:36:10.694Z,6.70
2019-03-02T09:38:43.060Z,6.60
2019-03-02T09:41:15.369Z,6.50
2019-03-02T09:43:47.678Z,6.40
2019-03-02T09:46:21.255Z,6.40
2019-03-02T09:48:53.002Z,6.30
2019-03-02T09:51:25.176Z,6.30
2019-03-02T09:53:57.066Z,6.40
2019-03-02T09:56:28.903Z,6.40
2019-03-02T09:59:01.664Z,6.50
2019-03-02T10:01:35.706Z,6.80
2019-03-02T10:04:08.254Z,7.00
2019-03-02T10:06:40.109Z,7.00
2019-03-02T10:09:12.921Z,7.10
2019-03-02T10:11:44.596Z,7.20
2019-03-02T10:14:27.558Z,7.10
2019-03-02T10:17:00.321Z,7.20
2019-03-02T10:19:32.108Z,7.50
2019-03-02T10:22:03.742Z,7.60
2019-03-02T10:24:35.751Z,7.70
2019-03-02T10:27:07.160Z,7.60
2019-03-02T10:29:39.014Z,7.60
2019-03-02T10:32:10.362Z,7.80
2019-03-02T10:34:42.910Z,7.90
2019-03-02T10:37:14.695Z,8.00
2019-03-02T10:39:46.267Z,8.00
2019-03-02T10:42:18.054Z,8.10
2019-03-02T10:44:49.926Z,8.10
2019-03-02T10:47:21.493Z,8.00
2019-03-02T10:49:53.484Z,7.90
2019-03-02T10:52:25.350Z,7.90
2019-03-02T10:54:57.313Z,7.90
2019-03-02T10:57:29.609Z,8.00
2019-03-02T11:00:00.929Z,8.00
2019-03-02T11:02:33.870Z,7.90
2019-03-02T11:05:21.087Z,7.80
2019-03-02T11:08:01.988Z,7.90
2019-03-02T11:10:59.879Z,7.80
2019-03-02T11:13:40.388Z,7.80
2019-03-02T11:16:37.883Z,7.70
2019-03-02T11:19:24.648Z,7.70
2019-03-02T11:22:15.140Z,7.70
2019-03-02T11:24:55.505Z,7.70
2019-03-02T11:27:49.776Z,7.70
2019-03-02T11:30:56.202Z,7.60
2019-03-02T11:33:52.448Z,7.50
2019-03-02T11:36:41.411Z,7.60
2019-03-02T11:39:19.096Z,7.70
2019-03-02T11:41:59.074Z,7.70
2019-03-02T11:44:46.530Z,7.70
2019-03-02T11:47:39.846Z,7.70
2019-03-02T11:50:26.478Z,7.80
2019-03-02T11:53:06.228Z,7.80
2019-03-02T11:55:59.241Z,7.80
2019-03-02T11:58:57.459Z,7.80
2019-03-02T12:01:47.917Z,7.90
2019-03-02T12:04:30.830Z,7.80
2019-03-02T12:07:14.971Z,7.70
2019-03-02T12:10:11.168Z,7.70
2019-03-02T12:12:56.737Z,7.70
2019-03-02T12:15:49.366Z,7.60
2019-03-02T12:18:37.017Z,7.70
2019-03-02T12:21:42.328Z,7.70
2019-03-02T12:24:39.367Z,7.70
2019-03-02T12:27:30.302Z,7.60
2019-03-02T12:30:16.608Z,7.60
2019-03-02T12:32:55.182Z,7.60
2019-03-02T12:35:34.424Z,7.60
2019-03-02T12:38:33.424Z,7.60
2019-03-02T12:41:21.981Z,7.60
2019-03-02T12:44:12.353Z,7.60
2019-03-02T12:47:04.997Z,7.70
2019-03-02T12:49:54.366Z,7.60
2019-03-02T12:52:53.754Z,7.60
2019-03-02T12:55:35.406Z,7.60
2019-03-02T12:58:12.552Z,7.50
2019-03-02T13:00:54.043Z,7.50
2019-03-02T13:03:43.110Z,7.40
2019-03-02T13:06:20.482Z,7.30
2019-03-02T13:09:09.505Z,7.30
2019-03-02T13:11:49.035Z,7.30
2019-03-02T13:14:42.049Z,7.40
2019-03-02T13:17:33.116Z,7.50
2019-03-02T13:20:19.058Z,7.50
2019-03-02T13:23:09.446Z,7.60
2019-03-02T13:25:58.290Z,7.70
2019-03-02T13:28:37.130Z,7.90
2019-03-02T13:31:23.713Z,8.00
2019-03-02T13:34:12.884Z,8.20
2019-03-02T13:36:56.124Z,8.50
2019-03-02T13:39:39.274Z,8.80
2019-03-02T13:42:42.223Z,9.00
2019-03-02T13:45:21.068Z,9.10
2019-03-02T13:48:10.515Z,9.20
2019-03-02T13:50:53.717Z,8.90
2019-03-02T13:53:28.067Z,8.80
2019-03-02T13:56:12.615Z,8.70
2019-03-02T13:58:55.844Z,8.60
2019-03-02T14:01:45.239Z,8.40
2019-03-02T14:04:41.643Z,8.30
2019-03-02T14:07:32.975Z,8.10
2019-03-02T14:10:23.933Z,8.10
2019-03-02T14:13:17.959Z,8.20
2019-03-02T14:16:02.440Z,8.20
2019-03-02T14:18:53.216Z,8.20
2019-03-02T14:21:34.477Z,8.20
2019-03-02T14:24:30.516Z,8.10
2019-03-02T14:27:30.151Z,8.10
2019-03-02T14:30:21.317Z,8.10
2019-03-02T14:32:59.566Z,8.10
2019-03-02T14:35:53.343Z,8.00
2019-03-02T14:38:32.087Z,8.00
2019-03-02T14:41:31.461Z,7.90
2019-03-02T14:44:24.807Z,7.90
2019-03-02T14:47:18.690Z,7.90
2019-03-02T14:50:01.960Z,7.90
2019-03-02T14:52:40.526Z,8.00
2019-03-02T14:55:29.242Z,8.00
2019-03-02T14:58:18.332Z,8.10
2019-03-02T15:01:07.066Z,8.30
2019-03-02T15:03:49.401Z,8.40
2019-03-02T15:06:55.212Z,8.50
2019-03-02T15:09:39.224Z,8.60
2019-03-02T15:12:24.933Z,8.60
2019-03-02T15:15:20.305Z,8.70
2019-03-02T15:18:00.920Z,8.70
2019-03-02T15:20:51.407Z,8.70
2019-03-02T15:23:38.719Z,8.80
2019-03-02T15:26:14.258Z,8.70
2019-03-02T15:29:04.590Z,8.70
2019-03-02T15:31:45.507Z,8.60
2019-03-02T15:34:29.736Z,8.50
2019-03-02T15:37:28.033Z,8.50
2019-03-02T15:40:06.393Z,8.50
2019-03-02T15:43:05.490Z,8.50
2019-03-02T15:45:58.848Z,8.30
2019-03-02T15:48:50.398Z,8.30
2019-03-02T15:51:30.983Z,8.30
2019-03-02T15:54:32.066Z,8.30
2019-03-02T15:57:12.493Z,8.30
2019-03-02T15:59:55.432Z,8.40
2019-03-02T16:02:52.269Z,8.30
2019-03-02T16:05:31.274Z,8.30
2019-03-02T16:08:14.056Z,8.30
2019-03-02T16:11:12.219Z,8.40
2019-03-02T16:14:20.586Z,8.30
2019-03-02T16:17:09.659Z,8.30
2019-03-02T16:19:49.027Z,8.20
2019-03-02T16:22:34.133Z,8.10
2019-03-02T16:25:15.855Z,8.10
2019-03-02T16:27:54.685Z,8.00
2019-03-02T16:30:44.462Z,7.90
2019-03-02T16:33:35.351Z,7.90
2019-03-02T16:36:30.178Z,8.00
2019-03-02T16:39:29.138Z,8.00
2019-03-02T16:42:25.779Z,7.90
2019-03-02T16:45:02.343Z,7.90
2019-03-02T16:47:40.702Z,7.90
2019-03-02T16:50:29.174Z,7.90
2019-03-02T16:53:23.625Z,7.90
2019-03-02T16:56:29.275Z,7.90
2019-03-02T16:59:07.891Z,7.90
2019-03-02T17:02:04.549Z,7.80
2019-03-02T17:04:58.066Z,7.70
2019-03-02T17:07:40.201Z,7.70
2019-03-02T17:10:23.564Z,7.70
2019-03-02T17:13:22.016Z,7.70
2019-03-02T17:16:11.746Z,7.70
2019-03-02T17:18:50.507Z,7.60
2019-03-02T17:21:38.893Z,7.60
2019-03-02T17:24:19.961Z,7.60
2019-03-02T17:27:08.973Z,7.50
2019-03-02T17:29:51.174Z,7.50
2019-03-02T17:32:44.849Z,7.50
2019-03-02T17:35:31.131Z,7.40
2019-03-02T17:38:40.251Z,7.50
2019-03-02T17:41:28.351Z,7.50
2019-03-02T17:44:10.334Z,7.50
2019-03-02T17:46:59.806Z,7.40
2019-03-02T17:50:09.590Z,7.40
2019-03-02T17:52:53.619Z,7.50
2019-03-02T17:56:00.938Z,7.40
2019-03-02T17:58:58.330Z,7.40
2019-03-02T18:01:47.353Z,7.40
2019-03-02T18:04:31.811Z,7.40
2019-03-02T18:07:09.748Z,7.30
2019-03-02T18:10:02.805Z,7.30
2019-03-02T18:12:43.311Z,7.30
2019-03-02T18:15:30.828Z,7.30
2019-03-02T18:18:01.155Z,7.20
2019-03-02T18:20:34.938Z,7.10
2019-03-02T18:23:06.891Z,7.00
2019-03-02T18:25:38.519Z,6.90
2019-03-02T18:28:14.087Z,6.80
2019-03-02T18:30:44.086Z,6.80
2019-03-02T18:33:22.010Z,6.70
2019-03-02T18:35:53.662Z,6.60
2019-03-02T18:38:25.613Z,6.60
2019-03-02T18:40:57.472Z,6.50
2019-03-02T18:43:29.080Z,6.50
2019-03-02T18:46:00.989Z,6.50
2019-03-02T18:48:50.012Z,6.40
2019-03-02T18:51:41.052Z,6.40
2019-03-02T18:54:14.387Z,6.40
2019-03-02T18:56:46.206Z,6.40
2019-03-02T18:59:18.016Z,6.50
2019-03-02T19:01:50.205Z,6.70
2019-03-02T19:04:25.780Z,6.60
2019-03-02T19:06:59.289Z,6.50
2019-03-02T19:09:32.261Z,6.40
2019-03-02T19:12:03.717Z,6.30
2019-03-02T19:14:36.461Z,6.20
2019-03-02T19:17:07.949Z,6.00
2019-03-02T19:19:39.029Z,5.90
2019-03-02T19:22:10.330Z,5.80
2019-03-02T19:24:42.452Z,5.80
2019-03-02T19:27:15.444Z,5.70
2019-03-02T19:29:47.312Z,5.70
2019-03-02T19:32:19.208Z,5.60
2019-03-02T19:34:51.143Z,5.60
2019-03-02T19:37:22.966Z,5.50
2019-03-02T19:39:55.858Z,5.50
2019-03-02T19:42:27.152Z,5.40
2019-03-02T19:44:59.142Z,5.50
2019-03-02T19:47:32.234Z,5.50
2019-03-02T19:50:03.656Z,5.60
2019-03-02T19:52:35.563Z,5.60
2019-03-02T19:55:08.047Z,5.70
2019-03-02T19:57:39.337Z,5.80
2019-03-02T20:00:21.819Z,5.90
2019-03-02T20:02:53.251Z,6.00
2019-03-02T20:05:25.789Z,6.10
2019-03-02T20:07:57.420Z,6.20
2019-03-02T20:10:29.407Z,6.20
2019-03-02T20:13:01.030Z,6.20
2019-03-02T20:15:32.276Z,6.30
2019-03-02T20:18:03.283Z,6.30
2019-03-02T20:20:34.755Z,6.30
2019-03-02T20:23:06.188Z,6.50
2019-03-02T20:25:37.741Z,6.50
2019-03-02T20:28:09.433Z,6.60
2019-03-02T20:30:40.416Z,6.60
2019-03-02T20:33:12.110Z,6.60
2019-03-02T20:35:44.222Z,6.60
2019-03-02T20:38:16.293Z,6.70
2019-03-02T20:40:47.469Z,6.70
2019-03-02T20:43:18.879Z,6.80
2019-03-02T20:45:50.479Z,6.80
2019-03-02T20:48:22.033Z,6.80
2019-03-02T20:50:53.287Z,6.80
2019-03-02T20:53:24.550Z,6.80
2019-03-02T20:55:56.525Z,6.90
2019-03-02T20:58:28.142Z,6.90
2019-03-02T21:01:00.079Z,6.90
2019-03-02T21:03:31.447Z,6.80
2019-03-02T21:06:03.354Z,6.90
2019-03-02T21:08:35.242Z,6.90
2019-03-02T21:11:07.260Z,6.80
2019-03-02T21:13:38.855Z,6.80
2019-03-02T21:16:10.753Z,6.80
2019-03-02T21:18:42.076Z,6.80
2019-03-02T21:21:14.261Z,6.70
2019-03-02T21:23:45.884Z,6.70
2019-03-02T21:26:17.180Z,6.70
2019-03-02T21:28:48.346Z,6.70
2019-03-02T21:31:20.400Z,6.70
2019-03-02T21:33:52.049Z,6.80
2019-03-02T21:36:24.077Z,6.80
2019-03-02T21:38:55.758Z,6.80
2019-03-02T21:41:27.101Z,6.80
2019-03-02T21:43:58.722Z,6.80
2019-03-02T21:46:30.633Z,6.90
2019-03-02T21:49:01.722Z,6.90
2019-03-02T21:51:33.286Z,7.10
2019-03-02T21:54:06.327Z,7.10
2019-03-02T21:56:37.923Z,7.20
2019-03-02T21:59:09.867Z,7.30
2019-03-02T22:01:41.437Z,7.40
2019-03-02T22:04:13.386Z,7.40
2019-03-02T22:06:45.040Z,7.50
2019-03-02T22:09:16.318Z,7.50
2019-03-02T22:11:47.857Z,7.60
2019-03-02T22:14:19.112Z,7.60
2019-03-02T22:16:50.453Z,7.70
2019-03-02T22:19:21.706Z,7.60
2019-03-02T22:21:53.262Z,7.70
2019-03-02T22:24:25.162Z,7.80
2019-03-02T22:26:56.792Z,7.80
2019-03-02T22:29:30.553Z,7.80
2019-03-02T22:32:01.916Z,7.70
2019-03-02T22:34:34.045Z,7.70
2019-03-02T22:37:05.320Z,7.70
2019-03-02T22:39:37.189Z,7.70
2019-03-02T22:42:09.291Z,7.70
2019-03-02T22:44:41.462Z,7.70
2019-03-02T22:47:13.592Z,7.70
2019-03-02T22:49:45.382Z,7.70
2019-03-02T22:52:16.712Z,7.60
2019-03-02T22:54:48.377Z,7.70
2019-03-02T22:57:20.440Z,7.70
2019-03-02T23:00:43.296Z,7.60
2019-03-02T23:03:13.569Z,7.60
2019-03-02T23:05:45.996Z,7.60
2019-03-02T23:08:18.070Z,7.60
2019-03-02T23:10:49.784Z,7.70
2019-03-02T23:13:21.677Z,7.70
2019-03-02T23:15:53.294Z,7.70
2019-03-02T23:18:25.087Z,7.70
2019-03-02T23:20:56.882Z,7.70
2019-03-02T23:23:28.619Z,7.70
2019-03-02T23:26:00.254Z,7.70
2019-03-02T23:28:31.610Z,7.80
2019-03-02T23:31:03.315Z,7.80
2019-03-02T23:33:35.333Z,7.80
2019-03-02T23:36:07.037Z,7.90
2019-03-02T23:38:38.327Z,7.90
2019-03-02T23:41:10.160Z,8.00
2019-03-02T23:43:41.978Z,8.00
2019-03-02T23:46:13.900Z,8.10
2019-03-02T23:48:46.089Z,8.10
2019-03-02T23:51:17.636Z,8.10
2019-03-02T23:53:48.944Z,8.10
2019-03-02T23:56:20.833Z,8.20
2019-03-02T23:58:51.841Z,8.20
